DLH6YX EDDF-EDDP
Flight info
| Callsign | DLH6YX |
|---|---|
| Flight time | 0h 41m |
| Altitude | 23000 |
| Route | SULUS7S SULUS Z12 LASGA T953 VOCIM T954 GOXLI GOXLI1R |
| Aircraft | A319/M-SDE2E3FGIJ1LORWXYZ/HB1 |
Departure
| Time | 2026-05-05 13:14 |
|---|---|
| Airport | Frankfurt Main Airport (EDDF) |
Arrival
| Time | 2026-05-05 13:55 |
|---|---|
| Airport | Leipzig/Halle Airport (EDDP) |
| Time | Latitude | Longitude | Altitude | Speed | Heading |
|---|---|---|---|---|---|
| 2026-05-05 12:45 | 50.04737 | 8.56737 | 356 ft | 0 kts | 115° |
| 2026-05-05 12:59 | 50.04737 | 8.56736 | 356 ft | 0 kts | 115° |
| 2026-05-05 13:02 | 50.04745 | 8.56708 | 363 ft | 3 kts | 118° |
| 2026-05-05 13:03 | 50.04758 | 8.56678 | 363 ft | 3 kts | 143° |
| 2026-05-05 13:03 | 50.04769 | 8.56668 | 363 ft | 3 kts | 188° |
| 2026-05-05 13:03 | 50.04772 | 8.56668 | 363 ft | 3 kts | 205° |
| 2026-05-05 13:03 | 50.04752 | 8.56647 | 359 ft | 3 kts | 218° |
| 2026-05-05 13:04 | 50.04735 | 8.56620 | 356 ft | 3 kts | 228° |
| 2026-05-05 13:04 | 50.04721 | 8.56590 | 356 ft | 3 kts | 237° |
| 2026-05-05 13:04 | 50.04711 | 8.56565 | 356 ft | 3 kts | 233° |
| 2026-05-05 13:04 | 50.04692 | 8.56542 | 360 ft | 3 kts | 213° |
| 2026-05-05 13:05 | 50.04671 | 8.56525 | 363 ft | 4 kts | 206° |
| 2026-05-05 13:05 | 50.04649 | 8.56509 | 356 ft | 3 kts | 204° |
| 2026-05-05 13:05 | 50.04630 | 8.56496 | 356 ft | 4 kts | 204° |
| 2026-05-05 13:05 | 50.04608 | 8.56481 | 361 ft | 4 kts | 204° |
| 2026-05-05 13:06 | 50.04586 | 8.56465 | 356 ft | 4 kts | 205° |
| 2026-05-05 13:06 | 50.04578 | 8.56459 | 356 ft | 0 kts | 205° |
| 2026-05-05 13:07 | 50.04577 | 8.56458 | 356 ft | 1 kts | 205° |
| 2026-05-05 13:08 | 50.04553 | 8.56441 | 360 ft | 6 kts | 205° |
| 2026-05-05 13:08 | 50.04514 | 8.56372 | 356 ft | 11 kts | 245° |
| 2026-05-05 13:08 | 50.04482 | 8.56240 | 362 ft | 14 kts | 249° |
| 2026-05-05 13:08 | 50.04447 | 8.56095 | 359 ft | 15 kts | 249° |
| 2026-05-05 13:09 | 50.04367 | 8.56041 | 356 ft | 15 kts | 161° |
| 2026-05-05 13:09 | 50.04267 | 8.56044 | 361 ft | 16 kts | 228° |
| 2026-05-05 13:09 | 50.04225 | 8.55877 | 358 ft | 17 kts | 249° |
| 2026-05-05 13:09 | 50.04180 | 8.55695 | 355 ft | 19 kts | 249° |
| 2026-05-05 13:10 | 50.04134 | 8.55500 | 352 ft | 20 kts | 250° |
| 2026-05-05 13:10 | 50.04087 | 8.55301 | 355 ft | 19 kts | 250° |
| 2026-05-05 13:10 | 50.04040 | 8.55108 | 357 ft | 19 kts | 249° |
| 2026-05-05 13:10 | 50.03993 | 8.54909 | 356 ft | 20 kts | 250° |
| 2026-05-05 13:11 | 50.03941 | 8.54692 | 351 ft | 22 kts | 249° |
| 2026-05-05 13:11 | 50.03886 | 8.54465 | 350 ft | 23 kts | 249° |
| 2026-05-05 13:11 | 50.03805 | 8.54242 | 347 ft | 24 kts | 243° |
| 2026-05-05 13:11 | 50.03745 | 8.53995 | 350 ft | 25 kts | 249° |
| 2026-05-05 13:12 | 50.03685 | 8.53741 | 345 ft | 25 kts | 249° |
| 2026-05-05 13:12 | 50.03622 | 8.53494 | 341 ft | 25 kts | 249° |
| 2026-05-05 13:12 | 50.03561 | 8.53235 | 338 ft | 25 kts | 249° |
| 2026-05-05 13:12 | 50.03500 | 8.52985 | 334 ft | 25 kts | 249° |
| 2026-05-05 13:13 | 50.03440 | 8.52753 | 334 ft | 19 kts | 247° |
| 2026-05-05 13:13 | 50.03407 | 8.52627 | 333 ft | 12 kts | 248° |
| 2026-05-05 13:13 | 50.03341 | 8.52594 | 333 ft | 10 kts | 180° |
| 2026-05-05 13:13 | 50.03268 | 8.52595 | 333 ft | 12 kts | 179° |
| 2026-05-05 13:14 | 50.03040 | 8.52597 | 336 ft | 73 kts | 180° |
| 2026-05-05 13:14 | 50.02230 | 8.52605 | 336 ft | 156 kts | 180° |
| 2026-05-05 13:14 | 50.01104 | 8.52634 | 1073 ft | 159 kts | 180° |
| 2026-05-05 13:14 | 49.99966 | 8.52672 | 1875 ft | 166 kts | 181° |
| 2026-05-05 13:15 | 49.98753 | 8.52672 | 2310 ft | 188 kts | 181° |
| 2026-05-05 13:15 | 49.97377 | 8.52888 | 2654 ft | 214 kts | 162° |
| 2026-05-05 13:15 | 49.96117 | 8.54267 | 3214 ft | 231 kts | 128° |
| 2026-05-05 13:15 | 49.95408 | 8.56533 | 4123 ft | 236 kts | 112° |
| 2026-05-05 13:16 | 49.94700 | 8.58830 | 5077 ft | 237 kts | 118° |
| 2026-05-05 13:16 | 49.94160 | 8.61280 | 5878 ft | 250 kts | 102° |
| 2026-05-05 13:16 | 49.93929 | 8.64083 | 6398 ft | 271 kts | 97° |
| 2026-05-05 13:16 | 49.93664 | 8.67019 | 7241 ft | 277 kts | 107° |
| 2026-05-05 13:17 | 49.92884 | 8.69756 | 8172 ft | 279 kts | 125° |
| 2026-05-05 13:17 | 49.91567 | 8.71957 | 9110 ft | 280 kts | 143° |
| 2026-05-05 13:17 | 49.89973 | 8.73725 | 10031 ft | 284 kts | 145° |
| 2026-05-05 13:17 | 49.88449 | 8.75860 | 10404 ft | 309 kts | 131° |
| 2026-05-05 13:18 | 49.87236 | 8.78705 | 11004 ft | 322 kts | 119° |
| 2026-05-05 13:18 | 49.86170 | 8.81794 | 11819 ft | 327 kts | 120° |
| 2026-05-05 13:18 | 49.85066 | 8.84898 | 12658 ft | 331 kts | 120° |
| 2026-05-05 13:18 | 49.83931 | 8.88024 | 13487 ft | 335 kts | 121° |
| 2026-05-05 13:19 | 49.82778 | 8.91174 | 14209 ft | 339 kts | 121° |
| 2026-05-05 13:19 | 49.81610 | 8.94363 | 14915 ft | 342 kts | 121° |
| 2026-05-05 13:19 | 49.80429 | 8.97585 | 15637 ft | 346 kts | 121° |
| 2026-05-05 13:19 | 49.79238 | 9.00838 | 16349 ft | 349 kts | 122° |
| 2026-05-05 13:20 | 49.78040 | 9.04123 | 17063 ft | 353 kts | 122° |
| 2026-05-05 13:20 | 49.76837 | 9.07449 | 17743 ft | 357 kts | 120° |
| 2026-05-05 13:20 | 49.75903 | 9.11051 | 18368 ft | 365 kts | 109° |
| 2026-05-05 13:20 | 49.75284 | 9.14887 | 18972 ft | 369 kts | 107° |
| 2026-05-05 13:21 | 49.74671 | 9.18755 | 19599 ft | 372 kts | 107° |
| 2026-05-05 13:21 | 49.74049 | 9.22657 | 20260 ft | 375 kts | 107° |
| 2026-05-05 13:21 | 49.73415 | 9.26587 | 20916 ft | 378 kts | 107° |
| 2026-05-05 13:21 | 49.72774 | 9.30543 | 21547 ft | 381 kts | 107° |
| 2026-05-05 13:22 | 49.72125 | 9.34536 | 22160 ft | 385 kts | 107° |
| 2026-05-05 13:22 | 49.71469 | 9.38562 | 22675 ft | 388 kts | 107° |
| 2026-05-05 13:22 | 49.70806 | 9.42598 | 22806 ft | 385 kts | 107° |
| 2026-05-05 13:22 | 49.70166 | 9.46514 | 22826 ft | 368 kts | 108° |
| 2026-05-05 13:23 | 49.69547 | 9.50288 | 22809 ft | 359 kts | 108° |
| 2026-05-05 13:23 | 49.68934 | 9.54005 | 22821 ft | 357 kts | 107° |
| 2026-05-05 13:23 | 49.68320 | 9.57711 | 22824 ft | 356 kts | 107° |
| 2026-05-05 13:23 | 49.67706 | 9.61417 | 22824 ft | 356 kts | 107° |
| 2026-05-05 13:24 | 49.67270 | 9.65192 | 22826 ft | 360 kts | 97° |
| 2026-05-05 13:24 | 49.67343 | 9.69066 | 22822 ft | 363 kts | 85° |
| 2026-05-05 13:24 | 49.67905 | 9.72881 | 22825 ft | 366 kts | 77° |
| 2026-05-05 13:24 | 49.68583 | 9.76670 | 22826 ft | 366 kts | 77° |
| 2026-05-05 13:25 | 49.69258 | 9.80462 | 22820 ft | 366 kts | 77° |
| 2026-05-05 13:25 | 49.69927 | 9.84254 | 22821 ft | 366 kts | 78° |
| 2026-05-05 13:25 | 49.70593 | 9.88053 | 22821 ft | 366 kts | 78° |
| 2026-05-05 13:25 | 49.71256 | 9.91798 | 22817 ft | 367 kts | 76° |
| 2026-05-05 13:26 | 49.72237 | 9.95451 | 22817 ft | 370 kts | 64° |
| 2026-05-05 13:26 | 49.73650 | 9.98791 | 22795 ft | 372 kts | 57° |
| 2026-05-05 13:26 | 49.75164 | 10.02040 | 22794 ft | 373 kts | 57° |
| 2026-05-05 13:26 | 49.76676 | 10.05299 | 22795 ft | 373 kts | 57° |
| 2026-05-05 13:27 | 49.78189 | 10.08571 | 22793 ft | 374 kts | 57° |
| 2026-05-05 13:27 | 49.79700 | 10.11844 | 22794 ft | 374 kts | 57° |
| 2026-05-05 13:27 | 49.81210 | 10.15130 | 22795 ft | 375 kts | 57° |
| 2026-05-05 13:27 | 49.82720 | 10.18425 | 22797 ft | 375 kts | 57° |
| 2026-05-05 13:28 | 49.84233 | 10.21722 | 22803 ft | 375 kts | 57° |
| 2026-05-05 13:28 | 49.85745 | 10.25011 | 22804 ft | 375 kts | 57° |
| 2026-05-05 13:28 | 49.87260 | 10.28312 | 22804 ft | 376 kts | 57° |
| 2026-05-05 13:28 | 49.88773 | 10.31614 | 22805 ft | 376 kts | 57° |
| 2026-05-05 13:29 | 49.90285 | 10.34916 | 22802 ft | 376 kts | 57° |
| 2026-05-05 13:29 | 49.91799 | 10.38225 | 22807 ft | 376 kts | 57° |
| 2026-05-05 13:29 | 49.93310 | 10.41531 | 22804 ft | 376 kts | 57° |
| 2026-05-05 13:29 | 49.94819 | 10.44838 | 22811 ft | 376 kts | 57° |
| 2026-05-05 13:30 | 49.96330 | 10.48153 | 22810 ft | 376 kts | 57° |
| 2026-05-05 13:30 | 49.97838 | 10.51471 | 22807 ft | 376 kts | 57° |
| 2026-05-05 13:30 | 49.99346 | 10.54793 | 22793 ft | 376 kts | 57° |
| 2026-05-05 13:30 | 50.00852 | 10.58120 | 22790 ft | 376 kts | 57° |
| 2026-05-05 13:31 | 50.02361 | 10.61453 | 22800 ft | 377 kts | 57° |
| 2026-05-05 13:31 | 50.03870 | 10.64785 | 22801 ft | 377 kts | 57° |
| 2026-05-05 13:31 | 50.05376 | 10.68116 | 22798 ft | 377 kts | 57° |
| 2026-05-05 13:31 | 50.06882 | 10.71451 | 22803 ft | 377 kts | 57° |
| 2026-05-05 13:32 | 50.08528 | 10.74635 | 22809 ft | 378 kts | 50° |
| 2026-05-05 13:32 | 50.10284 | 10.77680 | 22810 ft | 378 kts | 50° |
| 2026-05-05 13:32 | 50.12041 | 10.80730 | 22813 ft | 378 kts | 50° |
| 2026-05-05 13:32 | 50.13798 | 10.83782 | 22816 ft | 378 kts | 50° |
| 2026-05-05 13:33 | 50.15557 | 10.86840 | 22804 ft | 378 kts | 49° |
| 2026-05-05 13:33 | 50.17310 | 10.89897 | 22805 ft | 379 kts | 49° |
| 2026-05-05 13:33 | 50.19064 | 10.92958 | 22810 ft | 379 kts | 49° |
| 2026-05-05 13:33 | 50.20822 | 10.96030 | 22807 ft | 379 kts | 50° |
| 2026-05-05 13:34 | 50.22576 | 10.99099 | 22813 ft | 379 kts | 50° |
| 2026-05-05 13:34 | 50.24334 | 11.02176 | 22812 ft | 379 kts | 50° |
| 2026-05-05 13:34 | 50.26088 | 11.05251 | 22818 ft | 379 kts | 50° |
| 2026-05-05 13:34 | 50.27840 | 11.08328 | 22819 ft | 379 kts | 50° |
| 2026-05-05 13:35 | 50.29592 | 11.11413 | 22795 ft | 379 kts | 50° |
| 2026-05-05 13:35 | 50.31343 | 11.14497 | 22801 ft | 380 kts | 49° |
| 2026-05-05 13:35 | 50.33152 | 11.17510 | 22800 ft | 381 kts | 42° |
| 2026-05-05 13:35 | 50.35300 | 11.19933 | 22807 ft | 381 kts | 28° |
| 2026-05-05 13:36 | 50.37735 | 11.21559 | 22807 ft | 380 kts | 15° |
| 2026-05-05 13:36 | 50.40320 | 11.22327 | 22806 ft | 378 kts | 2° |
| 2026-05-05 13:36 | 50.42939 | 11.22301 | 22812 ft | 376 kts | 354° |
| 2026-05-05 13:36 | 50.45555 | 11.22105 | 22810 ft | 377 kts | 355° |
| 2026-05-05 13:37 | 50.48177 | 11.21909 | 22804 ft | 377 kts | 355° |
| 2026-05-05 13:37 | 50.50798 | 11.21715 | 22810 ft | 377 kts | 355° |
| 2026-05-05 13:37 | 50.53423 | 11.21521 | 22815 ft | 378 kts | 355° |
| 2026-05-05 13:37 | 50.56046 | 11.21328 | 22833 ft | 378 kts | 355° |
| 2026-05-05 13:38 | 50.58672 | 11.21136 | 22838 ft | 378 kts | 355° |
| 2026-05-05 13:38 | 50.61298 | 11.21022 | 22836 ft | 379 kts | 1° |
| 2026-05-05 13:38 | 50.63911 | 11.21588 | 22846 ft | 380 kts | 13° |
| 2026-05-05 13:38 | 50.66413 | 11.22931 | 22845 ft | 381 kts | 24° |
| 2026-05-05 13:39 | 50.68816 | 11.24688 | 22834 ft | 379 kts | 24° |
| 2026-05-05 13:39 | 50.71196 | 11.26427 | 22465 ft | 375 kts | 24° |
| 2026-05-05 13:39 | 50.73538 | 11.28131 | 22030 ft | 372 kts | 24° |
| 2026-05-05 13:39 | 50.75884 | 11.29832 | 21583 ft | 369 kts | 24° |
| 2026-05-05 13:40 | 50.78214 | 11.31521 | 21141 ft | 368 kts | 24° |
| 2026-05-05 13:40 | 50.80532 | 11.33201 | 20746 ft | 365 kts | 22° |
| 2026-05-05 13:40 | 50.82867 | 11.34745 | 20354 ft | 362 kts | 20° |
| 2026-05-05 13:40 | 50.85208 | 11.36157 | 19847 ft | 358 kts | 19° |
| 2026-05-05 13:41 | 50.87538 | 11.37495 | 19224 ft | 355 kts | 18° |
| 2026-05-05 13:41 | 50.89853 | 11.38806 | 18615 ft | 352 kts | 18° |
| 2026-05-05 13:41 | 50.92197 | 11.39788 | 18018 ft | 345 kts | 2° |
| 2026-05-05 13:41 | 50.94574 | 11.39721 | 17346 ft | 339 kts | 348° |
| 2026-05-05 13:42 | 50.96873 | 11.39023 | 16728 ft | 335 kts | 345° |
| 2026-05-05 13:42 | 50.99138 | 11.38231 | 16149 ft | 332 kts | 345° |
| 2026-05-05 13:42 | 51.01380 | 11.37422 | 15563 ft | 329 kts | 345° |
| 2026-05-05 13:42 | 51.03604 | 11.36609 | 15023 ft | 326 kts | 345° |
| 2026-05-05 13:43 | 51.05802 | 11.35808 | 14473 ft | 323 kts | 345° |
| 2026-05-05 13:43 | 51.07980 | 11.35006 | 13931 ft | 320 kts | 345° |
| 2026-05-05 13:43 | 51.10141 | 11.34202 | 13369 ft | 317 kts | 345° |
| 2026-05-05 13:43 | 51.12277 | 11.33398 | 12779 ft | 314 kts | 345° |
| 2026-05-05 13:44 | 51.14401 | 11.32597 | 12197 ft | 311 kts | 345° |
| 2026-05-05 13:44 | 51.16501 | 11.31810 | 11615 ft | 309 kts | 346° |
| 2026-05-05 13:44 | 51.18632 | 11.31642 | 11047 ft | 308 kts | 7° |
| 2026-05-05 13:44 | 51.20644 | 11.32699 | 10497 ft | 305 kts | 30° |
| 2026-05-05 13:45 | 51.22256 | 11.34839 | 9938 ft | 301 kts | 51° |
| 2026-05-05 13:45 | 51.23555 | 11.37447 | 9325 ft | 299 kts | 53° |
| 2026-05-05 13:45 | 51.24835 | 11.40043 | 8723 ft | 296 kts | 53° |
| 2026-05-05 13:45 | 51.26083 | 11.42579 | 8140 ft | 292 kts | 52° |
| 2026-05-05 13:46 | 51.27347 | 11.45147 | 7523 ft | 289 kts | 52° |
| 2026-05-05 13:46 | 51.28591 | 11.47670 | 7156 ft | 287 kts | 52° |
| 2026-05-05 13:46 | 51.29404 | 11.49319 | 6995 ft | 284 kts | 52° |
| 2026-05-05 13:46 | 51.30620 | 11.51786 | 6647 ft | 281 kts | 52° |
| 2026-05-05 13:47 | 51.31815 | 11.54212 | 6349 ft | 276 kts | 51° |
| 2026-05-05 13:47 | 51.33379 | 11.57393 | 5822 ft | 274 kts | 51° |
| 2026-05-05 13:47 | 51.34554 | 11.59784 | 5400 ft | 273 kts | 52° |
| 2026-05-05 13:47 | 51.35724 | 11.62168 | 4996 ft | 272 kts | 52° |
| 2026-05-05 13:48 | 51.36511 | 11.63776 | 4715 ft | 271 kts | 52° |
| 2026-05-05 13:48 | 51.37651 | 11.66159 | 4282 ft | 269 kts | 56° |
| 2026-05-05 13:48 | 51.38442 | 11.68830 | 3985 ft | 263 kts | 73° |
| 2026-05-05 13:48 | 51.38746 | 11.71677 | 3982 ft | 254 kts | 85° |
| 2026-05-05 13:49 | 51.38881 | 11.74387 | 3981 ft | 236 kts | 85° |
| 2026-05-05 13:49 | 51.39012 | 11.76906 | 3982 ft | 219 kts | 85° |
| 2026-05-05 13:49 | 51.39134 | 11.79283 | 3973 ft | 213 kts | 85° |
| 2026-05-05 13:49 | 51.39255 | 11.81645 | 3841 ft | 212 kts | 85° |
| 2026-05-05 13:50 | 51.39374 | 11.83996 | 3723 ft | 211 kts | 85° |
| 2026-05-05 13:50 | 51.39492 | 11.86335 | 3607 ft | 210 kts | 84° |
| 2026-05-05 13:50 | 51.39607 | 11.88618 | 3498 ft | 206 kts | 85° |
| 2026-05-05 13:50 | 51.39719 | 11.90845 | 3388 ft | 196 kts | 85° |
| 2026-05-05 13:51 | 51.39825 | 11.92989 | 3289 ft | 191 kts | 85° |
| 2026-05-05 13:51 | 51.39930 | 11.95103 | 3192 ft | 189 kts | 84° |
| 2026-05-05 13:51 | 51.40033 | 11.97187 | 3114 ft | 188 kts | 85° |
| 2026-05-05 13:51 | 51.40133 | 11.99216 | 3058 ft | 178 kts | 85° |
| 2026-05-05 13:52 | 51.40230 | 12.01187 | 2797 ft | 177 kts | 84° |
| 2026-05-05 13:52 | 51.40324 | 12.03102 | 2573 ft | 169 kts | 83° |
| 2026-05-05 13:52 | 51.40412 | 12.04902 | 2367 ft | 159 kts | 83° |
| 2026-05-05 13:52 | 51.40495 | 12.06636 | 2155 ft | 149 kts | 82° |
| 2026-05-05 13:53 | 51.40573 | 12.08236 | 1962 ft | 141 kts | 83° |
| 2026-05-05 13:53 | 51.40648 | 12.09784 | 1779 ft | 138 kts | 82° |
| 2026-05-05 13:53 | 51.40721 | 12.11294 | 1604 ft | 137 kts | 83° |
| 2026-05-05 13:53 | 51.40796 | 12.12832 | 1430 ft | 137 kts | 82° |
| 2026-05-05 13:54 | 51.40869 | 12.14351 | 1234 ft | 136 kts | 83° |
| 2026-05-05 13:54 | 51.40939 | 12.15833 | 1054 ft | 136 kts | 83° |
| 2026-05-05 13:54 | 51.41012 | 12.17363 | 851 ft | 136 kts | 83° |
| 2026-05-05 13:54 | 51.41085 | 12.18854 | 688 ft | 136 kts | 83° |
| 2026-05-05 13:55 | 51.41152 | 12.20357 | 490 ft | 134 kts | 83° |
| 2026-05-05 13:55 | 51.41229 | 12.21766 | 455 ft | 113 kts | 85° |
| 2026-05-05 13:55 | 51.41269 | 12.22752 | 465 ft | 64 kts | 85° |
| 2026-05-05 13:55 | 51.41290 | 12.23158 | 469 ft | 11 kts | 86° |
| 2026-05-05 13:56 | 51.41326 | 12.23252 | 470 ft | 11 kts | 15° |
| 2026-05-05 13:56 | 51.41409 | 12.23246 | 467 ft | 14 kts | 356° |
| 2026-05-05 13:56 | 51.41515 | 12.23234 | 465 ft | 16 kts | 356° |
| 2026-05-05 13:56 | 51.41609 | 12.23172 | 464 ft | 16 kts | 295° |
| 2026-05-05 13:57 | 51.41643 | 12.22982 | 458 ft | 20 kts | 285° |
| 2026-05-05 13:57 | 51.41680 | 12.22765 | 449 ft | 20 kts | 285° |
| 2026-05-05 13:57 | 51.41715 | 12.22562 | 440 ft | 20 kts | 285° |
| 2026-05-05 13:57 | 51.41757 | 12.22321 | 432 ft | 23 kts | 285° |
| 2026-05-05 13:58 | 51.41784 | 12.22157 | 431 ft | 14 kts | 285° |
| 2026-05-05 13:58 | 51.41809 | 12.22018 | 419 ft | 8 kts | 285° |
| 2026-05-05 13:58 | 51.41843 | 12.22004 | 431 ft | 6 kts | 17° |
| 2026-05-05 13:58 | 51.41888 | 12.22023 | 436 ft | 7 kts | 15° |
| 2026-05-05 13:59 | 51.41910 | 12.22033 | 436 ft | 0 kts | 15° |